createdAt,value
2023-01-13T00:00:09.500Z,14.10
2023-01-13T00:02:18.399Z,15.65
2023-01-13T00:02:50.674Z,17.05
2023-01-13T00:03:23.120Z,14.88
2023-01-13T00:03:58.106Z,19.05
2023-01-13T00:04:30.322Z,17.00
2023-01-13T00:05:02.515Z,19.17
2023-01-13T00:05:37.306Z,19.55
2023-01-13T00:06:35.136Z,17.20
2023-01-13T00:08:24.821Z,16.58
2023-01-13T00:08:57.943Z,15.25
2023-01-13T00:09:30.103Z,18.92
2023-01-13T00:10:04.872Z,18.65
2023-01-13T00:10:37.138Z,15.75
2023-01-13T00:11:10.385Z,17.55
2023-01-13T00:11:47.817Z,19.15
2023-01-13T00:12:20.337Z,16.60
2023-01-13T00:12:53.687Z,16.55
2023-01-13T00:13:29.471Z,19.13
2023-01-13T00:14:14.430Z,16.75
2023-01-13T00:14:46.718Z,17.27
2023-01-13T00:15:21.491Z,17.90
2023-01-13T00:15:59.021Z,17.20
2023-01-13T00:16:33.162Z,15.85
2023-01-13T00:17:08.133Z,19.17
2023-01-13T00:17:40.406Z,18.58
2023-01-13T00:18:12.556Z,18.83
2023-01-13T00:18:48.135Z,18.98
2023-01-13T00:19:35.293Z,17.05
2023-01-13T00:20:12.504Z,17.52
2023-01-13T00:20:44.666Z,16.45
2023-01-13T00:21:19.505Z,15.57
2023-01-13T00:21:54.336Z,16.67
2023-01-13T00:22:26.560Z,17.17
2023-01-13T00:23:03.876Z,16.92
2023-01-13T00:23:58.368Z,15.88
2023-01-13T00:24:30.592Z,15.90
2023-01-13T00:25:07.782Z,15.80
2023-01-13T00:25:39.916Z,15.93
2023-01-13T00:26:13.802Z,16.02
2023-01-13T00:26:48.639Z,14.77
2023-01-13T00:27:25.120Z,17.75
2023-01-13T00:27:57.344Z,14.80
2023-01-13T00:28:32.675Z,17.42
2023-01-13T00:29:07.421Z,15.07
2023-01-13T00:29:39.582Z,17.48
2023-01-13T00:30:15.482Z,15.77
2023-01-13T00:30:47.941Z,16.38
2023-01-13T00:31:21.403Z,18.35
2023-01-13T00:31:56.133Z,14.80
2023-01-13T00:32:28.611Z,15.95
2023-01-13T00:33:00.901Z,16.30
2023-01-13T00:33:33.180Z,14.85
2023-01-13T00:34:08.080Z,17.20
2023-01-13T00:34:40.189Z,14.10
2023-01-13T00:35:12.311Z,14.43
2023-01-13T00:38:26.492Z,15.05
2023-01-13T00:38:59.568Z,14.45
2023-01-13T00:39:31.737Z,18.70
2023-01-13T00:40:06.784Z,14.63
2023-01-13T00:45:20.479Z,13.05
2023-01-13T00:45:52.784Z,14.57
2023-01-13T00:46:25.017Z,14.88
2023-01-13T00:46:59.744Z,14.85
2023-01-13T00:47:34.600Z,15.73
2023-01-13T00:48:07.033Z,18.08
2023-01-13T00:48:42.285Z,15.80
2023-01-13T00:49:14.564Z,21.95
2023-01-13T00:49:46.795Z,26.10
2023-01-13T00:50:21.734Z,23.45
2023-01-13T00:50:57.673Z,20.58
2023-01-13T00:51:30.024Z,17.60
2023-01-13T00:52:04.724Z,16.30
2023-01-13T00:52:36.862Z,14.32
2023-01-13T00:53:09.087Z,14.07
2023-01-13T00:53:46.027Z,15.75
2023-01-13T00:54:18.896Z,15.55
2023-01-13T00:54:54.047Z,15.35
2023-01-13T00:55:29.989Z,14.73
2023-01-13T00:56:03.777Z,14.60
2023-01-13T00:56:40.808Z,12.60
2023-01-13T00:57:16.185Z,15.38
2023-01-13T00:57:48.354Z,12.43
2023-01-13T00:58:20.498Z,17.25
2023-01-13T00:58:57.203Z,14.43
2023-01-13T00:59:29.332Z,12.07
2023-01-13T01:00:10.623Z,14.80
2023-01-13T01:00:48.217Z,15.13
2023-01-13T01:01:22.428Z,14.15
2023-01-13T01:01:54.733Z,15.40
2023-01-13T01:02:29.619Z,15.57
2023-01-13T01:03:01.901Z,14.77
2023-01-13T01:03:34.204Z,14.20
2023-01-13T01:04:09.417Z,16.73
2023-01-13T01:04:41.556Z,15.85
2023-01-13T01:05:13.669Z,14.75
2023-01-13T01:05:48.505Z,15.60
2023-01-13T01:06:22.629Z,13.65
2023-01-13T01:06:54.845Z,14.85
2023-01-13T01:07:29.557Z,15.15
2023-01-13T01:08:02.051Z,15.63
2023-01-13T01:13:24.942Z,15.80
2023-01-13T01:13:58.927Z,14.52
2023-01-13T01:14:32.427Z,13.73
2023-01-13T01:15:10.204Z,14.60
2023-01-13T01:15:44.961Z,13.93
2023-01-13T01:16:18.550Z,16.48
2023-01-13T01:16:53.413Z,15.85
2023-01-13T01:17:25.610Z,15.32
2023-01-13T01:17:57.744Z,15.18
2023-01-13T01:18:32.539Z,15.60
2023-01-13T01:19:05.249Z,14.60
2023-01-13T01:19:40.212Z,14.43
2023-01-13T01:20:13.061Z,15.02
2023-01-13T01:24:16.786Z,13.30
2023-01-13T01:24:48.964Z,14.73
2023-01-13T01:25:21.115Z,14.60
2023-01-13T01:25:55.800Z,13.02
2023-01-13T01:26:29.507Z,13.15
2023-01-13T01:27:04.295Z,14.90
2023-01-13T01:27:37.591Z,14.95
2023-01-13T01:28:09.861Z,14.75
2023-01-13T01:28:42.533Z,14.10
2023-01-13T01:29:18.251Z,15.02
2023-01-13T01:29:50.507Z,16.15
2023-01-13T01:30:22.666Z,15.32
2023-01-13T01:31:00.505Z,15.10
2023-01-13T01:31:33.749Z,16.13
2023-01-13T01:32:09.214Z,15.95
2023-01-13T01:32:41.407Z,25.25
2023-01-13T01:33:13.525Z,15.73
2023-01-13T01:33:47.519Z,16.50
2023-01-13T01:34:22.299Z,30.92
2023-01-13T01:34:57.512Z,15.38
2023-01-13T01:35:29.638Z,15.63
2023-01-13T01:36:26.928Z,16.67
2023-01-13T01:36:59.058Z,14.15
2023-01-13T01:37:31.260Z,14.50
2023-01-13T01:38:06.046Z,15.55
2023-01-13T01:38:38.934Z,15.55
2023-01-13T01:39:11.373Z,14.25
2023-01-13T01:39:46.266Z,15.30
2023-01-13T01:40:18.690Z,16.48
2023-01-13T01:40:50.869Z,16.98
2023-01-13T01:41:29.669Z,16.08
2023-01-13T01:42:16.819Z,15.73
2023-01-13T01:43:04.056Z,14.45
2023-01-13T01:44:06.005Z,14.63
2023-01-13T01:45:02.052Z,14.25
2023-01-13T01:45:37.082Z,16.27
2023-01-13T01:46:11.794Z,15.40
2023-01-13T01:46:45.208Z,16.25
2023-01-13T01:47:38.917Z,14.68
2023-01-13T01:48:11.903Z,15.75
2023-01-13T01:48:44.150Z,14.43
2023-01-13T01:49:22.500Z,15.68
2023-01-13T01:49:56.735Z,17.38
2023-01-13T01:50:32.842Z,17.33
2023-01-13T01:51:22.659Z,15.55
2023-01-13T01:51:58.347Z,14.82
2023-01-13T01:52:34.070Z,16.45
2023-01-13T01:53:13.034Z,14.57
2023-01-13T01:53:45.409Z,16.02
2023-01-13T01:55:55.769Z,13.57
2023-01-13T01:56:29.493Z,13.02
2023-01-13T01:57:05.088Z,15.75
2023-01-13T01:57:47.505Z,15.75
2023-01-13T01:58:25.175Z,15.32
2023-01-13T01:59:00.014Z,15.48
2023-01-13T01:59:35.866Z,14.73
2023-01-13T02:00:13.367Z,15.20
2023-01-13T02:00:48.126Z,13.52
2023-01-13T02:01:23.032Z,14.13
2023-01-13T02:01:55.450Z,15.60
2023-01-13T02:02:31.009Z,15.63
2023-01-13T02:03:04.449Z,16.48
2023-01-13T02:03:39.857Z,13.52
2023-01-13T02:04:17.949Z,15.23
2023-01-13T02:04:53.536Z,15.10
2023-01-13T02:05:25.693Z,15.50
2023-01-13T02:06:00.419Z,15.57
2023-01-13T02:06:32.801Z,13.55
2023-01-13T02:07:05.301Z,15.57
2023-01-13T02:07:44.450Z,14.88
2023-01-13T02:08:18.545Z,13.98
2023-01-13T02:08:53.524Z,15.45
2023-01-13T02:09:29.117Z,14.20
2023-01-13T02:10:05.505Z,15.45
2023-01-13T02:10:39.966Z,14.85
2023-01-13T02:11:44.781Z,15.35
2023-01-13T02:12:34.920Z,15.65
2023-01-13T02:13:10.699Z,15.30
2023-01-13T02:13:42.933Z,16.40
2023-01-13T02:14:15.413Z,16.45
2023-01-13T02:14:53.828Z,15.02
2023-01-13T02:15:34.426Z,15.07
2023-01-13T02:16:27.514Z,15.05
2023-01-13T02:17:16.366Z,16.17
2023-01-13T02:18:11.590Z,13.85
2023-01-13T02:18:56.203Z,14.90
2023-01-13T02:20:00.925Z,15.65
2023-01-13T02:20:50.743Z,15.25
2023-01-13T02:21:54.904Z,15.63
2023-01-13T02:22:44.387Z,13.82
2023-01-13T02:24:02.129Z,13.60
2023-01-13T02:24:56.943Z,14.88
2023-01-13T02:26:02.058Z,16.35
2023-01-13T02:27:08.148Z,14.35
2023-01-13T02:28:03.260Z,15.73
2023-01-13T02:29:16.576Z,14.57
2023-01-13T02:30:28.863Z,15.70
2023-01-13T02:31:22.658Z,15.57
2023-01-13T02:32:06.321Z,14.85
2023-01-13T02:32:52.418Z,15.25
2023-01-13T02:33:36.952Z,22.55
2023-01-13T02:34:12.800Z,17.98
2023-01-13T02:34:57.051Z,16.60
2023-01-13T02:35:40.323Z,17.65
2023-01-13T02:36:20.157Z,17.95
2023-01-13T02:37:01.045Z,18.65
2023-01-13T02:37:39.339Z,17.40
2023-01-13T02:38:15.534Z,24.67
2023-01-13T02:38:57.584Z,21.52
2023-01-13T02:39:38.620Z,18.83
2023-01-13T02:40:17.489Z,17.33
2023-01-13T02:40:59.546Z,19.05
2023-01-13T02:41:53.913Z,18.45
2023-01-13T02:42:47.515Z,17.60
2023-01-13T02:43:41.388Z,20.65
2023-01-13T02:44:20.289Z,20.73
2023-01-13T02:44:59.327Z,17.92
2023-01-13T02:45:40.567Z,19.02
2023-01-13T02:46:18.409Z,17.50
2023-01-13T02:46:55.264Z,17.33
2023-01-13T02:47:33.326Z,19.00
2023-01-13T02:48:08.098Z,17.55
2023-01-13T02:48:42.678Z,19.05
2023-01-13T02:49:24.299Z,18.50
2023-01-13T02:50:02.301Z,17.90
2023-01-13T02:50:42.155Z,18.10
2023-01-13T02:51:17.686Z,19.80
2023-01-13T02:51:54.259Z,17.33
2023-01-13T02:52:34.533Z,17.65
2023-01-13T02:53:13.074Z,18.08
2023-01-13T02:53:51.067Z,17.80
2023-01-13T02:54:31.299Z,18.80
2023-01-13T02:57:18.794Z,16.23
2023-01-13T02:57:58.770Z,15.55
2023-01-13T02:58:32.782Z,16.50
2023-01-13T02:59:08.383Z,16.55
2023-01-13T02:59:41.764Z,18.88
2023-01-13T03:00:21.299Z,16.65
2023-01-13T03:00:54.272Z,18.25
2023-01-13T03:01:29.731Z,18.73
2023-01-13T03:02:05.702Z,17.10
2023-01-13T03:02:38.796Z,17.58
2023-01-13T03:03:10.928Z,17.15
2023-01-13T03:03:47.034Z,19.15
2023-01-13T03:04:45.867Z,19.10
2023-01-13T03:05:20.575Z,20.77
2023-01-13T03:06:14.182Z,19.58
2023-01-13T03:07:01.686Z,18.48
2023-01-13T03:08:05.078Z,18.70
2023-01-13T03:10:17.825Z,20.20
2023-01-13T03:11:09.016Z,20.02
2023-01-13T03:11:58.165Z,19.65
2023-01-13T03:12:42.629Z,17.25
2023-01-13T03:13:59.511Z,19.95
2023-01-13T03:14:44.221Z,16.38
2023-01-13T03:15:28.564Z,19.70
2023-01-13T03:16:09.810Z,19.45
2023-01-13T03:19:24.877Z,19.20
2023-01-13T03:20:00.457Z,19.73
2023-01-13T03:20:39.603Z,18.30
2023-01-13T03:21:21.284Z,18.50
2023-01-13T03:21:57.567Z,21.60
2023-01-13T03:24:55.863Z,18.63
2023-01-13T03:25:36.053Z,17.55
2023-01-13T03:26:14.020Z,18.67
2023-01-13T03:26:51.848Z,19.85
2023-01-13T03:27:29.133Z,20.38
2023-01-13T03:28:04.946Z,20.40
2023-01-13T03:28:44.169Z,20.60
2023-01-13T03:29:20.735Z,20.42
2023-01-13T03:29:59.243Z,19.40
2023-01-13T03:30:43.729Z,22.02
2023-01-13T03:31:22.921Z,19.48
2023-01-13T03:31:59.921Z,18.00
2023-01-13T03:32:38.480Z,22.73
2023-01-13T03:33:16.343Z,20.88
2023-01-13T03:33:55.500Z,21.90
2023-01-13T03:35:45.713Z,21.02
2023-01-13T03:36:25.867Z,19.92
2023-01-13T03:37:01.773Z,21.83
2023-01-13T03:37:37.747Z,21.67
2023-01-13T03:38:16.289Z,21.08
2023-01-13T03:38:52.243Z,20.77
2023-01-13T03:39:41.924Z,22.58
2023-01-13T03:40:20.235Z,22.27
2023-01-13T03:41:33.433Z,21.30
2023-01-13T03:42:13.531Z,21.50
2023-01-13T03:43:04.273Z,20.38
2023-01-13T03:43:54.103Z,19.27
2023-01-13T03:44:32.863Z,18.85
2023-01-13T03:45:51.788Z,21.65
2023-01-13T03:46:35.059Z,21.00
2023-01-13T03:47:14.414Z,21.30
2023-01-13T03:47:53.562Z,21.27
2023-01-13T03:48:28.214Z,23.13
2023-01-13T03:49:03.259Z,22.52
2023-01-13T03:49:44.055Z,20.98
2023-01-13T03:50:20.884Z,22.45
2023-01-13T03:50:57.255Z,24.27
2023-01-13T03:51:35.789Z,24.52
2023-01-13T03:55:09.222Z,23.38
2023-01-13T03:55:47.280Z,21.75
2023-01-13T03:56:25.616Z,23.00
2023-01-13T03:57:05.224Z,25.08
2023-01-13T03:57:43.756Z,22.33
2023-01-13T03:58:21.620Z,22.73
2023-01-13T03:58:57.223Z,22.65
2023-01-13T03:59:33.315Z,24.20
2023-01-13T04:00:10.534Z,23.02
2023-01-13T04:02:40.615Z,21.25
2023-01-13T04:03:18.426Z,22.77
2023-01-13T04:03:59.665Z,22.27
2023-01-13T04:04:39.866Z,21.02
2023-01-13T04:05:14.593Z,21.70
2023-01-13T04:05:55.352Z,22.33
2023-01-13T04:06:36.035Z,20.40
2023-01-13T04:07:16.388Z,21.42
2023-01-13T04:08:34.345Z,21.33
2023-01-13T04:09:14.766Z,22.48
2023-01-13T04:10:28.073Z,20.35
2023-01-13T04:11:05.764Z,19.92
2023-01-13T04:11:45.658Z,22.40
2023-01-13T04:12:24.046Z,19.95
2023-01-13T04:13:01.871Z,20.83
2023-01-13T04:13:41.964Z,24.42
2023-01-13T04:14:25.343Z,24.02
2023-01-13T04:15:00.365Z,25.02
2023-01-13T04:15:39.048Z,24.65
2023-01-13T04:16:29.640Z,25.67
2023-01-13T04:17:24.763Z,21.92
2023-01-13T04:19:35.388Z,20.67
2023-01-13T04:20:08.608Z,22.85
2023-01-13T04:20:41.627Z,24.90
2023-01-13T04:21:39.687Z,24.65
2023-01-13T04:22:11.963Z,23.17
2023-01-13T04:22:44.117Z,22.98
2023-01-13T04:23:20.049Z,21.60
2023-01-13T04:23:52.165Z,21.65
2023-01-13T04:24:24.247Z,21.05
2023-01-13T04:24:58.933Z,21.05
2023-01-13T04:25:31.141Z,21.63
2023-01-13T04:26:03.258Z,20.33
2023-01-13T04:26:38.026Z,26.17
2023-01-13T04:27:10.139Z,24.73
2023-01-13T04:27:42.216Z,22.48
2023-01-13T04:28:17.879Z,20.50
2023-01-13T04:28:50.097Z,19.65
2023-01-13T04:29:22.274Z,24.52
2023-01-13T04:29:56.950Z,25.48
2023-01-13T04:30:29.161Z,23.27
2023-01-13T04:31:03.973Z,27.27
2023-01-13T04:31:39.304Z,28.17
2023-01-13T04:32:11.383Z,24.63
2023-01-13T04:32:59.978Z,24.92
2023-01-13T04:33:32.259Z,24.92
2023-01-13T04:34:04.374Z,26.75
2023-01-13T04:34:43.495Z,28.70
2023-01-13T04:35:32.550Z,27.05
2023-01-13T04:36:10.491Z,24.17
2023-01-13T04:36:45.233Z,23.60
2023-01-13T04:37:32.289Z,25.17
2023-01-13T04:38:05.996Z,26.52
2023-01-13T04:38:40.774Z,26.73
2023-01-13T04:39:13.117Z,27.02
2023-01-13T04:39:46.572Z,24.83
2023-01-13T04:40:23.539Z,24.50
2023-01-13T04:41:13.676Z,27.55
2023-01-13T04:42:03.452Z,24.30
2023-01-13T04:42:38.149Z,27.38
2023-01-13T04:43:21.743Z,25.98
2023-01-13T04:43:53.856Z,25.25
2023-01-13T04:44:35.224Z,24.85
2023-01-13T04:45:10.067Z,25.98
2023-01-13T04:45:42.546Z,29.08
2023-01-13T04:46:17.905Z,25.13
2023-01-13T04:46:53.107Z,25.00
2023-01-13T04:47:25.269Z,25.38
2023-01-13T04:47:57.680Z,26.05
2023-01-13T04:48:32.333Z,24.95
2023-01-13T04:49:04.494Z,25.90
2023-01-13T04:49:39.173Z,25.15
2023-01-13T04:50:14.397Z,25.70
2023-01-13T04:50:46.529Z,25.88
2023-01-13T04:51:21.203Z,26.73
2023-01-13T04:51:53.462Z,23.52
2023-01-13T04:52:25.607Z,27.25
2023-01-13T04:52:58.933Z,25.67
2023-01-13T04:53:33.661Z,24.35
2023-01-13T04:54:06.033Z,25.92
2023-01-13T04:54:38.131Z,27.05
2023-01-13T04:55:10.839Z,24.85
2023-01-13T04:55:47.934Z,24.70
2023-01-13T04:56:20.056Z,24.58
2023-01-13T04:56:52.250Z,25.65
2023-01-13T04:57:26.933Z,23.83
2023-01-13T04:58:03.511Z,26.30
2023-01-13T04:58:38.174Z,25.65
2023-01-13T04:59:11.297Z,27.80
2023-01-13T04:59:43.412Z,26.83
2023-01-13T05:00:20.161Z,26.65
2023-01-13T05:00:52.348Z,24.33
2023-01-13T05:01:24.642Z,26.38
2023-01-13T05:01:59.452Z,26.55
2023-01-13T05:03:48.194Z,28.23
2023-01-13T05:04:20.422Z,27.60
2023-01-13T05:04:57.815Z,24.73
2023-01-13T05:05:31.228Z,24.65
2023-01-13T05:06:06.037Z,25.15
2023-01-13T05:06:38.154Z,25.13
2023-01-13T05:07:10.282Z,27.65
2023-01-13T05:07:44.986Z,27.75
2023-01-13T05:08:17.372Z,27.65
2023-01-13T05:08:51.136Z,26.20
2023-01-13T05:09:28.674Z,26.00
2023-01-13T05:10:02.153Z,25.92
2023-01-13T05:10:34.266Z,26.05
2023-01-13T05:11:29.400Z,26.52
2023-01-13T05:12:16.742Z,28.98
2023-01-13T05:13:04.049Z,30.10
2023-01-13T05:13:51.357Z,26.15
2023-01-13T05:14:38.801Z,27.52
2023-01-13T05:15:27.584Z,28.73
2023-01-13T05:16:18.944Z,27.00
2023-01-13T05:17:04.687Z,26.48
2023-01-13T05:17:37.153Z,27.52
2023-01-13T05:18:09.892Z,28.92
2023-01-13T05:18:44.935Z,25.00
2023-01-13T05:19:17.106Z,26.48
2023-01-13T05:19:49.391Z,25.73
2023-01-13T05:20:27.327Z,27.60
2023-01-13T05:20:59.656Z,27.35
2023-01-13T05:21:46.835Z,25.75
2023-01-13T05:22:34.143Z,27.48
2023-01-13T05:23:33.548Z,28.35
2023-01-13T05:24:21.373Z,25.70
2023-01-13T05:25:08.663Z,25.85
2023-01-13T05:25:46.435Z,25.08
2023-01-13T05:26:18.813Z,27.50
2023-01-13T05:26:51.187Z,26.80
2023-01-13T05:27:26.033Z,25.73
2023-01-13T05:27:59.845Z,27.08
2023-01-13T05:28:35.944Z,26.30
2023-01-13T05:29:08.185Z,28.33
2023-01-13T05:29:43.127Z,26.83
2023-01-13T05:30:19.033Z,27.92
2023-01-13T05:30:52.737Z,28.23
2023-01-13T05:31:27.556Z,29.13
2023-01-13T07:13:41.500Z,24.77
2023-01-13T07:14:28.419Z,29.92
2023-01-13T07:15:15.825Z,23.65
2023-01-13T07:15:59.031Z,24.52
2023-01-13T07:16:31.244Z,25.73
2023-01-13T07:17:03.466Z,27.10
2023-01-13T07:17:38.262Z,26.42
2023-01-13T07:18:10.372Z,27.45
2023-01-13T07:18:45.102Z,27.42
2023-01-13T07:19:23.315Z,25.52
2023-01-13T07:19:55.427Z,27.30
2023-01-13T07:20:34.028Z,25.55
2023-01-13T07:21:08.331Z,28.98
2023-01-13T07:21:54.381Z,26.02
2023-01-13T07:23:01.321Z,24.40
2023-01-13T07:23:36.588Z,29.05
2023-01-13T07:24:11.424Z,27.08
2023-01-13T07:24:43.549Z,27.52
2023-01-13T07:25:15.708Z,26.90
2023-01-13T07:25:50.505Z,30.23
2023-01-13T07:26:22.587Z,26.10
2023-01-13T07:26:59.782Z,27.08
2023-01-13T07:27:38.564Z,27.35
2023-01-13T07:28:13.448Z,27.38
2023-01-13T07:28:48.085Z,24.50
2023-01-13T07:29:22.909Z,25.10
2023-01-13T07:29:55.019Z,27.70
2023-01-13T07:30:27.124Z,26.25
2023-01-13T07:31:02.391Z,25.38
2023-01-13T07:31:34.554Z,27.13
2023-01-13T07:32:08.048Z,30.48
2023-01-13T07:32:55.397Z,37.60
2023-01-13T07:33:33.144Z,33.47
2023-01-13T07:34:05.537Z,32.15
2023-01-13T07:34:40.272Z,25.83
2023-01-13T07:35:12.495Z,30.70
2023-01-13T07:35:44.674Z,26.83
2023-01-13T07:36:19.400Z,27.77
2023-01-13T07:37:08.428Z,27.40
2023-01-13T07:37:46.367Z,28.17
2023-01-13T07:38:18.512Z,31.92
2023-01-13T07:39:09.150Z,29.33
2023-01-13T07:40:13.482Z,24.90
2023-01-13T07:40:48.240Z,34.80
2023-01-13T07:41:35.356Z,28.17
2023-01-13T07:43:38.666Z,26.83
2023-01-13T07:44:13.476Z,26.00
2023-01-13T07:44:49.050Z,24.52
2023-01-13T07:45:21.149Z,23.83
2023-01-13T07:45:58.957Z,23.10
2023-01-13T07:46:31.394Z,23.63
2023-01-13T07:47:06.352Z,29.45
2023-01-13T07:47:54.037Z,23.98
2023-01-13T07:48:28.837Z,28.58
2023-01-13T07:49:00.950Z,23.83
2023-01-13T07:49:33.305Z,25.45
2023-01-13T07:50:09.229Z,22.60
2023-01-13T07:50:44.024Z,23.92
2023-01-13T07:51:19.131Z,26.55
2023-01-13T07:51:51.248Z,22.48
2023-01-13T07:52:23.366Z,25.27
2023-01-13T07:53:00.873Z,23.35
2023-01-13T07:53:33.316Z,24.55
2023-01-13T07:54:08.204Z,26.15
2023-01-13T07:54:41.377Z,23.80
2023-01-13T07:55:13.819Z,24.15
2023-01-13T07:55:48.494Z,23.90
2023-01-13T07:56:20.659Z,24.65
2023-01-13T07:56:52.871Z,24.38
2023-01-13T07:57:27.623Z,26.25
2023-01-13T07:57:59.767Z,24.08
2023-01-13T07:58:36.004Z,24.05
2023-01-13T07:59:08.164Z,23.10
2023-01-13T07:59:45.534Z,21.95
2023-01-13T08:00:19.083Z,23.23
2023-01-13T08:00:51.622Z,23.13
2023-01-13T08:01:27.841Z,28.02
2023-01-13T08:02:00.395Z,22.30
2023-01-13T08:02:35.267Z,24.75
2023-01-13T08:03:07.535Z,21.90
2023-01-13T08:03:42.507Z,25.33
2023-01-13T08:04:14.736Z,26.17
2023-01-13T08:04:49.388Z,24.88
2023-01-13T08:05:21.503Z,27.35
2023-01-13T08:05:53.638Z,25.65
2023-01-13T08:06:28.750Z,25.40
2023-01-13T08:07:00.823Z,25.00
2023-01-13T08:07:35.884Z,23.15
2023-01-13T08:08:08.059Z,25.30
2023-01-13T08:08:43.154Z,26.20
2023-01-13T08:09:15.303Z,25.00
2023-01-13T08:09:47.465Z,23.98
2023-01-13T08:10:22.393Z,25.00
2023-01-13T08:10:54.634Z,34.10
2023-01-13T08:11:29.651Z,27.73
2023-01-13T08:12:16.760Z,25.90
2023-01-13T08:13:04.089Z,24.52
2023-01-13T08:13:37.174Z,22.65
2023-01-13T08:14:11.940Z,28.38
2023-01-13T08:14:46.780Z,25.27
2023-01-13T08:16:59.879Z,25.92
2023-01-13T08:17:32.061Z,27.05
2023-01-13T08:18:07.038Z,25.17
2023-01-13T08:18:41.199Z,23.98
2023-01-13T08:19:16.166Z,27.98
2023-01-13T08:19:48.568Z,24.35
2023-01-13T08:20:20.731Z,25.70
2023-01-13T08:20:56.006Z,24.65
2023-01-13T08:21:28.435Z,25.10
2023-01-13T08:22:00.562Z,27.48
2023-01-13T08:22:35.631Z,24.13
2023-01-13T08:23:10.980Z,22.67
2023-01-13T08:23:46.984Z,25.35
2023-01-13T08:24:19.071Z,24.17
2023-01-13T08:24:51.255Z,26.17
2023-01-13T08:25:26.390Z,25.42
2023-01-13T08:27:35.406Z,24.00
2023-01-13T08:28:08.198Z,24.13
2023-01-13T08:28:43.215Z,24.90
2023-01-13T08:29:15.600Z,22.90
2023-01-13T08:29:50.308Z,23.00
2023-01-13T08:30:25.571Z,23.48
2023-01-13T08:31:00.003Z,26.17
2023-01-13T08:31:34.976Z,27.45
2023-01-13T08:32:07.104Z,23.75
2023-01-13T08:32:39.290Z,29.70
2023-01-13T08:33:15.634Z,29.83
2023-01-13T08:33:50.963Z,24.35
2023-01-13T08:34:28.146Z,24.30
2023-01-13T08:35:00.302Z,26.00
2023-01-13T08:35:32.588Z,23.48
2023-01-13T08:36:09.708Z,26.38
2023-01-13T08:36:41.933Z,26.50
2023-01-13T08:37:14.094Z,27.98
2023-01-13T08:37:50.009Z,24.60
2023-01-13T08:38:23.376Z,25.85
2023-01-13T08:38:58.097Z,28.80
2023-01-13T08:39:30.523Z,28.35
2023-01-13T08:40:02.726Z,28.20
2023-01-13T08:40:37.647Z,26.15
2023-01-13T08:41:10.685Z,25.88
2023-01-13T08:41:56.214Z,28.55
2023-01-13T08:42:33.811Z,26.65
2023-01-13T08:43:27.606Z,25.85
2023-01-13T08:44:21.700Z,25.00
2023-01-13T08:44:59.200Z,26.10
2023-01-13T08:45:31.937Z,26.00
2023-01-13T08:46:04.960Z,24.45
2023-01-13T08:46:40.125Z,24.55
2023-01-13T08:47:12.272Z,24.52
2023-01-13T08:47:44.805Z,24.90
2023-01-13T08:48:19.477Z,26.33
2023-01-13T08:48:51.732Z,25.52
2023-01-13T08:49:29.588Z,24.60
2023-01-13T08:53:55.122Z,25.85
2023-01-13T08:54:27.289Z,27.35
2023-01-13T08:54:59.433Z,25.88
2023-01-13T08:55:34.256Z,27.55
2023-01-13T08:56:11.013Z,30.83
2023-01-13T08:56:44.374Z,30.67
2023-01-13T08:57:24.507Z,26.13
2023-01-13T08:58:14.311Z,26.35
2023-01-13T08:58:49.881Z,26.40
2023-01-13T08:59:22.092Z,26.35
2023-01-13T08:59:59.417Z,31.98
2023-01-13T09:00:31.722Z,32.30
2023-01-13T09:01:08.777Z,27.73
2023-01-13T09:01:41.335Z,30.58
2023-01-13T09:02:23.539Z,32.50
2023-01-13T09:02:55.893Z,31.55
2023-01-13T09:03:30.641Z,35.53
2023-01-13T09:04:02.911Z,28.23
2023-01-13T09:04:40.395Z,32.72
2023-01-13T09:05:12.642Z,27.90
2023-01-13T09:05:50.158Z,26.17
2023-01-13T09:06:30.119Z,24.98
2023-01-13T09:07:07.550Z,30.13
2023-01-13T09:07:39.855Z,24.30
2023-01-13T09:08:15.340Z,26.15
2023-01-13T09:08:58.492Z,26.67
2023-01-13T09:09:33.232Z,25.40
2023-01-13T09:10:07.871Z,21.80
2023-01-13T09:10:43.171Z,27.50
2023-01-13T09:11:33.707Z,20.65
2023-01-13T09:13:08.571Z,19.27
2023-01-13T09:13:40.686Z,23.02
2023-01-13T09:14:12.858Z,20.25
2023-01-13T09:14:50.516Z,24.38
2023-01-13T09:15:25.303Z,20.45
2023-01-13T09:16:00.164Z,22.80
2023-01-13T09:16:33.548Z,21.55
2023-01-13T09:17:05.811Z,23.48
2023-01-13T09:17:40.480Z,23.85
2023-01-13T09:18:13.605Z,24.27
2023-01-13T09:18:48.389Z,26.15
2023-01-13T09:19:20.518Z,26.17
2023-01-13T09:19:52.629Z,30.40
2023-01-13T09:20:28.056Z,25.13
2023-01-13T09:21:00.325Z,31.50
2023-01-13T09:21:38.123Z,27.52
2023-01-13T09:22:30.416Z,29.10
2023-01-13T09:24:15.753Z,25.90
2023-01-13T09:24:48.093Z,24.45
2023-01-13T09:25:22.926Z,23.65
2023-01-13T09:25:55.044Z,25.58
2023-01-13T09:26:27.232Z,23.70
2023-01-13T09:27:01.969Z,25.30
2023-01-13T09:27:34.115Z,25.95
2023-01-13T09:28:10.173Z,23.15
2023-01-13T09:28:42.399Z,23.80
2023-01-13T09:29:38.527Z,26.33
2023-01-13T09:30:11.980Z,22.55
2023-01-13T09:30:49.406Z,21.85
2023-01-13T09:31:21.758Z,24.60
2023-01-13T09:31:54.110Z,25.92
2023-01-13T09:32:43.876Z,24.77
2023-01-13T09:33:31.395Z,26.73
2023-01-13T09:34:19.790Z,24.90
2023-01-13T09:35:07.799Z,32.88
2023-01-13T09:36:05.691Z,24.63
2023-01-13T09:36:40.403Z,25.38
2023-01-13T09:37:12.768Z,25.35
2023-01-13T09:37:47.569Z,25.25
2023-01-13T09:38:19.668Z,25.48
2023-01-13T09:38:51.854Z,26.02
2023-01-13T09:39:26.614Z,25.60
2023-01-13T09:39:58.767Z,27.45
2023-01-13T09:40:33.528Z,25.40
2023-01-13T09:41:26.112Z,26.83
2023-01-13T09:42:18.975Z,24.63
2023-01-13T09:43:10.111Z,24.80
2023-01-13T09:43:54.245Z,22.80
2023-01-13T09:44:35.023Z,26.30
2023-01-13T09:45:12.402Z,26.52
2023-01-13T09:45:54.281Z,26.92
2023-01-13T09:46:47.418Z,25.70
2023-01-13T09:47:24.250Z,23.08
2023-01-13T09:48:07.686Z,22.70
2023-01-13T09:48:52.271Z,23.75
2023-01-13T09:49:29.808Z,22.58
2023-01-13T09:50:20.609Z,22.85
2023-01-13T09:51:03.395Z,23.05
2023-01-13T09:51:43.632Z,26.25
2023-01-13T09:52:54.665Z,23.27
2023-01-13T09:53:30.692Z,24.42
2023-01-13T09:54:09.247Z,25.33
2023-01-13T09:54:46.694Z,26.30
2023-01-13T09:55:23.084Z,21.42
2023-01-13T09:55:55.717Z,25.02
2023-01-13T09:56:30.483Z,23.77
2023-01-13T09:57:02.656Z,25.25
2023-01-13T09:57:38.111Z,22.42
2023-01-13T09:58:16.891Z,27.45
2023-01-13T09:58:49.692Z,23.40
2023-01-13T09:59:21.847Z,26.63
2023-01-13T09:59:57.687Z,23.40
2023-01-13T10:00:38.716Z,22.88
2023-01-13T10:01:23.775Z,27.98
2023-01-13T10:02:03.881Z,27.00
2023-01-13T10:02:50.495Z,26.35
2023-01-13T10:03:25.733Z,30.40
2023-01-13T10:04:08.430Z,29.92
2023-01-13T10:04:41.447Z,27.08
2023-01-13T10:05:25.386Z,29.95
2023-01-13T10:06:04.705Z,26.00
2023-01-13T10:06:42.527Z,26.13
2023-01-13T10:07:15.075Z,20.88
2023-01-13T10:07:51.199Z,24.38
2023-01-13T10:08:29.532Z,23.25
2023-01-13T10:09:02.333Z,22.42
2023-01-13T10:09:48.695Z,21.63
2023-01-13T10:10:29.955Z,22.50
2023-01-13T10:11:33.076Z,27.67
2023-01-13T10:12:29.397Z,22.33
2023-01-13T10:13:20.177Z,23.98
2023-01-13T10:13:58.279Z,22.77
2023-01-13T10:14:38.181Z,24.25
2023-01-13T10:15:18.111Z,25.58
2023-01-13T10:16:08.025Z,25.40
2023-01-13T10:16:51.252Z,24.05
2023-01-13T10:17:31.227Z,24.63
2023-01-13T10:18:16.668Z,24.42
2023-01-13T10:19:00.888Z,23.92
2023-01-13T10:19:42.238Z,22.98
2023-01-13T10:20:19.054Z,23.45
2023-01-13T10:21:03.046Z,23.88
2023-01-13T10:22:00.951Z,25.83
2023-01-13T10:22:54.888Z,25.25
2023-01-13T10:23:41.104Z,23.13
2023-01-13T10:24:25.361Z,22.70
2023-01-13T10:25:21.291Z,26.42
2023-01-13T10:26:06.779Z,25.13
2023-01-13T10:26:48.625Z,21.67
2023-01-13T10:27:31.823Z,24.00
2023-01-13T10:28:10.758Z,23.35
2023-01-13T10:28:45.414Z,21.73
2023-01-13T10:29:24.834Z,22.83
2023-01-13T10:29:59.683Z,25.38
2023-01-13T10:30:35.636Z,24.83
2023-01-13T10:31:14.906Z,26.02
2023-01-13T10:31:49.620Z,24.90
2023-01-13T10:32:24.393Z,25.02
2023-01-13T10:32:58.860Z,33.33
2023-01-13T10:33:33.624Z,29.35
2023-01-13T10:34:05.766Z,26.60
2023-01-13T10:34:50.086Z,26.63
2023-01-13T10:35:51.008Z,24.60
2023-01-13T10:37:00.849Z,25.55
2023-01-13T10:37:35.584Z,28.48
2023-01-13T10:38:16.373Z,31.15
2023-01-13T10:38:53.097Z,28.08
2023-01-13T10:39:25.668Z,32.20